createdAt,value
2017-10-19T00:01:03.421Z,0
2017-10-19T00:02:13.884Z,0
2017-10-19T00:03:24.288Z,0
2017-10-19T00:04:34.357Z,0
2017-10-19T00:05:44.757Z,0
2017-10-19T00:06:54.828Z,0
2017-10-19T00:08:05.271Z,0
2017-10-19T00:09:15.705Z,0
2017-10-19T00:10:26.130Z,0
2017-10-19T00:11:36.193Z,0
2017-10-19T00:12:46.587Z,0
2017-10-19T00:13:56.705Z,0
2017-10-19T00:15:06.777Z,0
2017-10-19T00:16:16.874Z,0
2017-10-19T00:17:26.625Z,0
2017-10-19T00:18:36.701Z,0
2017-10-19T00:19:47.105Z,0
2017-10-19T00:20:57.167Z,0
2017-10-19T00:22:06.919Z,0
2017-10-19T00:23:17.328Z,0
2017-10-19T00:24:27.402Z,0
2017-10-19T00:25:37.812Z,0
2017-10-19T00:26:48.209Z,0
2017-10-19T00:27:58.608Z,0
2017-10-19T00:29:09.008Z,0
2017-10-19T00:30:19.399Z,0
2017-10-19T00:31:28.870Z,0
2017-10-19T00:32:39.268Z,0
2017-10-19T00:33:49.347Z,0
2017-10-19T00:34:59.737Z,0
2017-10-19T00:36:09.825Z,0
2017-10-19T00:37:20.290Z,0
2017-10-19T00:38:32.303Z,0
2017-10-19T00:39:42.360Z,0
2017-10-19T00:40:52.755Z,0
2017-10-19T00:42:03.161Z,0
2017-10-19T00:43:13.569Z,0
2017-10-19T00:44:23.651Z,0
2017-10-19T00:45:33.739Z,0
2017-10-19T00:46:44.153Z,0
2017-10-19T00:47:54.567Z,0
2017-10-19T00:49:04.672Z,0
2017-10-19T00:50:14.729Z,0
2017-10-19T00:51:24.821Z,0
2017-10-19T00:52:34.902Z,0
2017-10-19T00:53:44.986Z,0
2017-10-19T00:54:55.438Z,0
2017-10-19T00:56:05.525Z,0
2017-10-19T00:57:15.927Z,0
2017-10-19T00:58:26.002Z,0
2017-10-19T00:59:36.419Z,0
2017-10-19T01:00:46.886Z,0
2017-10-19T01:01:57.315Z,0
2017-10-19T01:03:07.761Z,0
2017-10-19T01:04:17.842Z,0
2017-10-19T01:05:28.251Z,0
2017-10-19T01:06:38.046Z,0
2017-10-19T01:07:48.490Z,0
2017-10-19T01:08:58.895Z,0
2017-10-19T01:10:08.962Z,0
2017-10-19T01:11:19.363Z,0
2017-10-19T01:12:29.771Z,0
2017-10-19T01:13:40.172Z,0
2017-10-19T01:14:49.928Z,0
2017-10-19T01:16:00.004Z,0
2017-10-19T01:17:10.402Z,0
2017-10-19T01:18:20.828Z,0
2017-10-19T01:19:30.898Z,0
2017-10-19T01:20:41.293Z,0
2017-10-19T01:21:51.393Z,0
2017-10-19T01:23:01.451Z,0
2017-10-19T01:24:11.626Z,0
2017-10-19T01:25:22.013Z,0
2017-10-19T01:26:32.085Z,0
2017-10-19T01:27:41.826Z,0
2017-10-19T01:28:52.220Z,0
2017-10-19T01:30:02.277Z,0
2017-10-19T01:31:12.687Z,0
2017-10-19T01:32:22.762Z,0
2017-10-19T01:33:33.158Z,0
2017-10-19T01:34:43.549Z,0
2017-10-19T01:35:53.980Z,0
2017-10-19T01:37:04.055Z,0
2017-10-19T01:38:14.480Z,0
2017-10-19T01:39:24.876Z,0
2017-10-19T01:40:35.283Z,0
2017-10-19T01:41:45.732Z,0
2017-10-19T01:42:55.817Z,0
2017-10-19T01:44:06.202Z,0
2017-10-19T01:45:16.276Z,0
2017-10-19T01:46:26.687Z,0
2017-10-19T01:47:37.097Z,0
2017-10-19T01:48:47.172Z,0
2017-10-19T01:49:57.569Z,0
2017-10-19T01:51:07.643Z,0
2017-10-19T01:52:17.715Z,0
2017-10-19T01:53:28.208Z,0
2017-10-19T01:54:38.278Z,0
2017-10-19T01:55:48.673Z,0
2017-10-19T01:56:59.085Z,0
2017-10-19T01:58:09.482Z,0
2017-10-19T01:59:20.810Z,0
2017-10-19T02:00:31.215Z,0
2017-10-19T02:01:41.279Z,0
2017-10-19T02:02:51.664Z,0
2017-10-19T02:04:01.736Z,0
2017-10-19T02:05:11.823Z,0
2017-10-19T02:06:21.892Z,0
2017-10-19T02:07:31.943Z,0
2017-10-19T02:08:42.018Z,0
2017-10-19T02:09:52.083Z,0
2017-10-19T02:11:02.482Z,0
2017-10-19T02:12:12.893Z,0
2017-10-19T02:13:23.297Z,0
2017-10-19T02:14:33.050Z,0
2017-10-19T02:15:43.131Z,0
2017-10-19T02:16:53.204Z,0
2017-10-19T02:18:03.282Z,0
2017-10-19T02:19:13.686Z,0
2017-10-19T02:20:24.094Z,0
2017-10-19T02:21:34.498Z,0
2017-10-19T02:22:44.954Z,0
2017-10-19T02:23:55.345Z,0
2017-10-19T02:25:05.737Z,0
2017-10-19T02:26:16.128Z,0
2017-10-19T02:27:26.190Z,0
2017-10-19T02:28:36.597Z,0
2017-10-19T02:29:46.978Z,0
2017-10-19T02:30:57.050Z,0
2017-10-19T02:32:07.481Z,0
2017-10-19T02:33:17.880Z,0
2017-10-19T02:34:28.292Z,0
2017-10-19T02:35:38.392Z,0
2017-10-19T02:36:48.815Z,0
2017-10-19T02:37:59.225Z,0
2017-10-19T02:39:09.635Z,0
2017-10-19T02:40:20.039Z,0
2017-10-19T02:41:30.469Z,0
2017-10-19T02:42:40.881Z,0
2017-10-19T02:43:51.282Z,0
2017-10-19T02:45:01.691Z,0
2017-10-19T02:46:11.812Z,0
2017-10-19T02:47:22.219Z,0
2017-10-19T02:48:32.294Z,0
2017-10-19T02:49:42.365Z,0
2017-10-19T02:50:52.748Z,0
2017-10-19T02:52:02.838Z,0
2017-10-19T02:53:13.236Z,0
2017-10-19T02:54:23.646Z,0
2017-10-19T02:55:34.055Z,0
2017-10-19T02:56:45.351Z,0
2017-10-19T02:57:55.743Z,0
2017-10-19T02:59:05.814Z,0
2017-10-19T03:00:15.556Z,0
2017-10-19T03:01:26.024Z,0
2017-10-19T03:33:56.242Z,0
2017-10-19T03:35:06.641Z,0
2017-10-19T03:36:17.036Z,0
2017-10-19T03:37:27.435Z,0
2017-10-19T03:38:37.836Z,0
2017-10-19T03:39:48.292Z,0
2017-10-19T03:40:58.364Z,0
2017-10-19T03:42:08.780Z,0
2017-10-19T03:43:18.526Z,0
2017-10-19T03:44:28.932Z,0
2017-10-19T03:45:39.387Z,0
2017-10-19T03:46:49.459Z,0
2017-10-19T03:47:59.526Z,0
2017-10-19T03:49:09.270Z,0
2017-10-19T03:50:19.673Z,0
2017-10-19T03:51:30.124Z,0
2017-10-19T03:52:40.540Z,0
2017-10-19T03:53:50.939Z,0
2017-10-19T03:55:01.344Z,0
2017-10-19T03:56:11.420Z,0
2017-10-19T03:57:21.816Z,0
2017-10-19T03:58:32.219Z,0
2017-10-19T03:59:42.618Z,0
2017-10-19T04:00:53.013Z,0
2017-10-19T04:02:03.410Z,0
2017-10-19T04:03:13.861Z,0
2017-10-19T04:04:24.280Z,0
2017-10-19T04:05:34.350Z,0
2017-10-19T04:06:44.744Z,0
2017-10-19T04:07:55.144Z,0
2017-10-19T04:09:05.255Z,0
2017-10-19T04:10:15.341Z,0
2017-10-19T04:11:25.090Z,0
2017-10-19T04:12:35.486Z,0
2017-10-19T04:13:45.557Z,0
2017-10-19T04:14:55.675Z,0
2017-10-19T04:16:06.076Z,0
2017-10-19T04:17:16.487Z,0
2017-10-19T04:18:26.875Z,0
2017-10-19T04:19:37.267Z,0
2017-10-19T04:20:47.675Z,0
2017-10-19T04:21:58.078Z,0
2017-10-19T04:23:08.477Z,0
2017-10-19T04:24:18.877Z,0
2017-10-19T04:25:29.295Z,0
2017-10-19T04:26:39.742Z,0
2017-10-19T04:27:50.073Z,0
2017-10-19T04:29:00.484Z,0
2017-10-19T04:30:10.566Z,0
2017-10-19T04:31:20.967Z,0
2017-10-19T04:32:31.030Z,0
2017-10-19T04:33:41.418Z,0
2017-10-19T04:34:51.813Z,0
2017-10-19T04:36:01.909Z,0
2017-10-19T04:37:12.359Z,0
2017-10-19T04:38:22.772Z,0
2017-10-19T04:39:33.163Z,0
2017-10-19T04:40:43.563Z,0
2017-10-19T04:41:53.636Z,0
2017-10-19T04:43:03.726Z,0
2017-10-19T04:44:13.856Z,0
2017-10-19T04:45:24.254Z,0
2017-10-19T04:46:34.643Z,0
2017-10-19T04:47:45.033Z,0
2017-10-19T04:48:55.105Z,0
2017-10-19T04:50:05.558Z,0
2017-10-19T04:51:15.985Z,0
2017-10-19T04:52:26.049Z,0
2017-10-19T04:53:36.472Z,0
2017-10-19T04:54:46.875Z,0
2017-10-19T04:55:57.342Z,0
2017-10-19T04:57:07.739Z,0
2017-10-19T04:58:18.164Z,0
2017-10-19T04:59:28.585Z,0
2017-10-19T05:00:38.997Z,0
2017-10-19T05:01:49.119Z,0
2017-10-19T05:02:59.195Z,0
2017-10-19T05:04:09.258Z,0
2017-10-19T05:05:19.000Z,0
2017-10-19T05:06:29.391Z,0
2017-10-19T05:07:39.835Z,0
2017-10-19T05:08:50.650Z,0
2017-10-19T05:10:01.066Z,0
2017-10-19T05:11:11.471Z,0
2017-10-19T05:12:21.537Z,0
2017-10-19T05:13:31.657Z,0
2017-10-19T05:14:42.049Z,0
2017-10-19T05:15:52.452Z,0
2017-10-19T05:17:02.537Z,0
2017-10-19T05:18:12.630Z,0
2017-10-19T05:19:23.026Z,0
2017-10-19T05:20:33.422Z,0
2017-10-19T05:21:43.829Z,0
2017-10-19T05:22:53.907Z,0
2017-10-19T05:24:04.353Z,0
2017-10-19T05:25:14.746Z,0
2017-10-19T05:26:25.153Z,0
2017-10-19T05:27:35.545Z,0
2017-10-19T05:28:45.626Z,0
2017-10-19T05:29:56.026Z,0
2017-10-19T05:31:06.140Z,0
2017-10-19T05:32:16.542Z,0
2017-10-19T05:33:26.942Z,0
2017-10-19T05:34:37.029Z,5
2017-10-19T05:35:47.430Z,5
2017-10-19T05:36:57.835Z,5
2017-10-19T05:38:08.246Z,5
2017-10-19T05:39:18.332Z,5
2017-10-19T05:40:28.386Z,5
2017-10-19T05:41:38.799Z,5
2017-10-19T05:42:49.258Z,5
2017-10-19T05:43:59.344Z,5
2017-10-19T05:45:09.742Z,5
2017-10-19T05:46:20.127Z,10
2017-10-19T05:47:30.525Z,10
2017-10-19T05:48:40.971Z,10
2017-10-19T05:49:51.362Z,10
2017-10-19T05:51:01.798Z,10
2017-10-19T05:52:13.165Z,10
2017-10-19T05:53:23.257Z,10
2017-10-19T05:54:33.060Z,10
2017-10-19T05:55:43.452Z,10
2017-10-19T05:56:53.202Z,15
2017-10-19T05:58:03.274Z,15
2017-10-19T05:59:13.677Z,15
2017-10-19T06:00:23.789Z,15
2017-10-19T06:01:34.203Z,15
2017-10-19T06:02:44.601Z,15
2017-10-19T06:03:55.018Z,20
2017-10-19T06:05:05.114Z,20
2017-10-19T06:06:15.594Z,20
2017-10-19T06:07:25.373Z,20
2017-10-19T06:08:35.755Z,20
2017-10-19T06:09:46.149Z,20
2017-10-19T06:10:56.545Z,25
2017-10-19T06:12:06.620Z,25
2017-10-19T06:13:17.013Z,25
2017-10-19T06:14:27.420Z,25
2017-10-19T06:15:37.167Z,25
2017-10-19T06:16:46.905Z,25
2017-10-19T06:17:57.365Z,25
2017-10-19T06:19:07.773Z,25
2017-10-19T06:20:18.173Z,30
2017-10-19T06:21:28.584Z,30
2017-10-19T06:22:38.977Z,30
2017-10-19T06:23:49.437Z,30
2017-10-19T06:24:59.831Z,30
2017-10-19T06:26:10.241Z,30
2017-10-19T06:27:20.662Z,30
2017-10-19T06:28:31.060Z,30
2017-10-19T06:29:41.455Z,35
2017-10-19T06:30:51.521Z,35
2017-10-19T06:32:01.940Z,40
2017-10-19T06:33:12.338Z,40
2017-10-19T06:34:22.734Z,35
2017-10-19T06:35:33.195Z,35
2017-10-19T06:36:43.591Z,35
2017-10-19T06:37:53.991Z,40
2017-10-19T06:39:04.393Z,40
2017-10-19T06:40:14.800Z,40
2017-10-19T06:41:24.920Z,45
2017-10-19T06:42:34.666Z,50
2017-10-19T06:43:45.078Z,50
2017-10-19T06:44:54.819Z,45
2017-10-19T06:46:04.899Z,50
2017-10-19T06:47:15.358Z,55
2017-10-19T06:48:25.426Z,50
2017-10-19T06:49:35.827Z,50
2017-10-19T06:50:46.232Z,55
2017-10-19T06:51:56.636Z,60
2017-10-19T06:53:07.879Z,60
2017-10-19T06:54:18.265Z,60
2017-10-19T06:55:28.355Z,60
2017-10-19T06:56:38.746Z,70
2017-10-19T06:57:49.063Z,70
2017-10-19T06:58:59.174Z,70
2017-10-19T07:00:10.170Z,70
2017-10-19T07:01:21.195Z,65
2017-10-19T07:02:32.158Z,65
2017-10-19T07:03:43.170Z,70
2017-10-19T07:04:54.189Z,70
2017-10-19T07:06:05.183Z,75
2017-10-19T07:07:15.818Z,80
2017-10-19T07:08:26.837Z,75
2017-10-19T07:09:37.849Z,75
2017-10-19T07:10:48.923Z,70
2017-10-19T07:11:59.539Z,70
2017-10-19T07:13:10.581Z,70
2017-10-19T07:14:22.161Z,75
2017-10-19T07:15:33.296Z,85
2017-10-19T07:16:47.753Z,85
2017-10-19T07:18:00.912Z,75
2017-10-19T07:19:14.462Z,75
2017-10-19T07:20:26.749Z,80
2017-10-19T07:21:39.744Z,85
2017-10-19T07:22:51.113Z,80
2017-10-19T07:24:04.661Z,85
2017-10-19T07:25:18.066Z,90
2017-10-19T07:26:31.502Z,90
2017-10-19T07:27:46.046Z,90
2017-10-19T07:29:00.036Z,90
2017-10-19T07:30:13.177Z,90
2017-10-19T07:31:29.305Z,90
2017-10-19T07:32:44.899Z,85
2017-10-19T07:34:00.947Z,85
2017-10-19T07:35:18.203Z,80
2017-10-19T07:36:32.496Z,80
2017-10-19T07:37:46.620Z,80
2017-10-19T07:39:03.271Z,75
2017-10-19T07:40:18.102Z,75
2017-10-19T07:41:31.532Z,75
2017-10-19T07:42:44.727Z,75
2017-10-19T07:43:58.081Z,85
2017-10-19T07:45:10.632Z,95
2017-10-19T07:46:25.892Z,90
2017-10-19T07:47:42.442Z,90
2017-10-19T07:48:56.940Z,80
2017-10-19T07:50:12.176Z,80
2017-10-19T07:51:29.202Z,80
2017-10-19T07:52:46.640Z,85
2017-10-19T07:54:03.781Z,85
2017-10-19T07:55:20.074Z,95
2017-10-19T07:56:33.048Z,100
2017-10-19T07:57:45.284Z,95
2017-10-19T07:58:58.437Z,100
2017-10-19T08:00:10.674Z,110
2017-10-19T08:01:23.970Z,105
2017-10-19T08:02:37.225Z,105
2017-10-19T08:03:53.712Z,105
2017-10-19T08:05:09.661Z,110
2017-10-19T08:06:23.453Z,115
2017-10-19T08:07:38.357Z,115
2017-10-19T08:08:53.162Z,120
2017-10-19T08:10:07.957Z,125
2017-10-19T08:11:21.090Z,130
2017-10-19T08:12:35.407Z,135
2017-10-19T08:13:48.385Z,135
2017-10-19T08:15:01.625Z,140
2017-10-19T08:16:12.778Z,140
2017-10-19T08:17:24.767Z,135
2017-10-19T08:18:38.369Z,135
2017-10-19T08:19:52.377Z,125
2017-10-19T08:21:06.399Z,120
2017-10-19T08:22:20.624Z,115
2017-10-19T08:23:34.751Z,115
2017-10-19T08:24:47.927Z,115
2017-10-19T08:25:58.825Z,110
2017-10-19T08:27:12.895Z,110
2017-10-19T08:28:25.482Z,110
2017-10-19T08:29:39.980Z,110
2017-10-19T08:30:51.182Z,110
2017-10-19T08:32:01.629Z,110
2017-10-19T08:33:12.060Z,115
2017-10-19T08:34:22.520Z,115
2017-10-19T08:35:32.285Z,115
2017-10-19T08:36:42.706Z,110
2017-10-19T08:37:53.120Z,110
2017-10-19T08:39:03.594Z,110
2017-10-19T08:40:13.990Z,105
2017-10-19T08:41:23.764Z,100
2017-10-19T08:42:34.170Z,95
2017-10-19T08:43:44.592Z,95
2017-10-19T08:44:54.686Z,90
2017-10-19T08:46:05.187Z,90
2017-10-19T08:47:15.604Z,90
2017-10-19T08:48:25.724Z,95
2017-10-19T08:49:36.133Z,95
2017-10-19T08:50:46.561Z,100
2017-10-19T08:51:56.981Z,105
2017-10-19T08:53:07.076Z,105
2017-10-19T08:54:16.835Z,105
2017-10-19T08:55:27.254Z,105
2017-10-19T08:56:38.249Z,105
2017-10-19T08:57:48.671Z,110
2017-10-19T08:58:59.065Z,110
2017-10-19T09:00:09.558Z,105
2017-10-19T09:01:19.687Z,100
2017-10-19T09:02:30.099Z,100
2017-10-19T09:03:40.217Z,95
2017-10-19T09:04:50.629Z,90
2017-10-19T09:06:01.038Z,85
2017-10-19T09:07:11.107Z,85
2017-10-19T09:08:21.510Z,85
2017-10-19T09:09:31.988Z,85
2017-10-19T09:10:42.425Z,85
2017-10-19T09:11:52.839Z,85
2017-10-19T09:13:03.226Z,90
2017-10-19T09:14:12.967Z,100
2017-10-19T09:15:23.387Z,105
2017-10-19T09:16:33.481Z,105
2017-10-19T09:17:43.886Z,95
2017-10-19T09:18:54.275Z,90
2017-10-19T09:20:04.690Z,90
2017-10-19T09:21:14.777Z,90
2017-10-19T09:22:26.459Z,90
2017-10-19T09:23:36.869Z,90
2017-10-19T09:24:47.300Z,95
2017-10-19T09:25:57.368Z,95
2017-10-19T09:27:07.507Z,95
2017-10-19T09:28:17.594Z,95
2017-10-19T09:29:27.662Z,95
2017-10-19T09:30:38.079Z,95
2017-10-19T09:31:48.220Z,90
2017-10-19T09:32:59.270Z,85
2017-10-19T09:34:09.920Z,80
2017-10-19T09:35:20.472Z,80
2017-10-19T09:36:30.887Z,85
2017-10-19T09:37:41.347Z,85
2017-10-19T09:38:51.886Z,90
2017-10-19T09:40:02.418Z,95
2017-10-19T09:41:12.934Z,95
2017-10-19T09:42:23.433Z,105
2017-10-19T09:43:33.866Z,95
2017-10-19T09:44:44.370Z,95
2017-10-19T09:45:54.812Z,100
2017-10-19T09:47:05.261Z,110
2017-10-19T09:48:15.697Z,115
2017-10-19T09:49:26.131Z,125
2017-10-19T09:50:36.619Z,125
2017-10-19T09:51:46.807Z,115
2017-10-19T09:52:57.228Z,110
2017-10-19T09:54:07.670Z,105
2017-10-19T09:55:18.082Z,110
2017-10-19T09:56:28.534Z,110
2017-10-19T09:57:38.613Z,110
2017-10-19T09:58:49.052Z,110
2017-10-19T09:59:59.488Z,105
2017-10-19T10:01:09.891Z,110
2017-10-19T10:02:20.369Z,110
2017-10-19T10:03:30.483Z,110
2017-10-19T10:04:40.929Z,110
2017-10-19T10:05:52.106Z,105
2017-10-19T10:07:02.533Z,105
2017-10-19T10:08:12.963Z,105
2017-10-19T10:09:23.069Z,110
2017-10-19T10:10:33.507Z,115
2017-10-19T10:11:43.927Z,125
2017-10-19T10:12:54.334Z,130
2017-10-19T10:14:04.828Z,130
2017-10-19T10:15:15.306Z,125
2017-10-19T10:16:25.980Z,125
2017-10-19T10:17:35.764Z,125
2017-10-19T10:18:45.852Z,125
2017-10-19T10:19:56.337Z,130
2017-10-19T10:21:06.743Z,145
2017-10-19T10:22:17.169Z,150
2017-10-19T10:23:27.585Z,140
2017-10-19T10:24:38.030Z,140
2017-10-19T10:25:48.494Z,125
2017-10-19T10:26:58.605Z,115
2017-10-19T10:28:08.692Z,110
2017-10-19T10:29:19.133Z,110
2017-10-19T10:30:29.564Z,120
2017-10-19T10:31:40.031Z,130
2017-10-19T10:32:50.457Z,135
2017-10-19T10:34:00.870Z,135
2017-10-19T10:35:11.298Z,130
2017-10-19T10:36:21.714Z,125
2017-10-19T10:37:32.176Z,125
2017-10-19T10:38:42.608Z,120
2017-10-19T10:39:52.399Z,120
2017-10-19T10:41:02.835Z,120
2017-10-19T10:42:12.926Z,125
2017-10-19T10:43:23.418Z,135
2017-10-19T10:44:33.851Z,140
2017-10-19T10:45:43.672Z,145
2017-10-19T10:46:54.090Z,150
2017-10-19T10:48:04.185Z,150
2017-10-19T10:49:14.290Z,145
2017-10-19T10:50:24.714Z,140
2017-10-19T10:51:35.123Z,140
2017-10-19T10:52:45.530Z,140
2017-10-19T10:53:55.953Z,135
2017-10-19T10:55:06.365Z,135
2017-10-19T10:56:16.791Z,145
2017-10-19T10:57:26.586Z,145
2017-10-19T10:58:37.005Z,160
2017-10-19T10:59:47.434Z,160
2017-10-19T11:00:57.917Z,160
2017-10-19T11:02:08.325Z,160
2017-10-19T11:03:18.727Z,155
2017-10-19T11:04:28.804Z,150
2017-10-19T11:05:39.219Z,150
2017-10-19T11:06:49.647Z,145
2017-10-19T11:08:00.043Z,140
2017-10-19T11:09:10.108Z,145
2017-10-19T11:10:20.507Z,145
2017-10-19T11:11:30.972Z,150
2017-10-19T11:12:41.436Z,150
2017-10-19T11:13:51.863Z,150
2017-10-19T11:15:02.325Z,150
2017-10-19T11:16:12.748Z,150
2017-10-19T11:17:22.842Z,145
2017-10-19T11:18:32.993Z,145
2017-10-19T11:19:43.436Z,145
2017-10-19T11:20:53.840Z,145
2017-10-19T11:22:03.925Z,145
2017-10-19T11:23:14.338Z,145
2017-10-19T11:24:24.492Z,145
2017-10-19T11:25:34.594Z,150
2017-10-19T11:26:44.691Z,150
2017-10-19T11:27:55.119Z,160
2017-10-19T11:29:05.223Z,150
2017-10-19T11:30:15.647Z,145
2017-10-19T11:31:25.736Z,145
2017-10-19T11:32:35.822Z,145
2017-10-19T11:33:46.257Z,145
2017-10-19T11:34:56.684Z,135
2017-10-19T11:36:06.492Z,130
2017-10-19T11:37:16.902Z,130
2017-10-19T11:38:27.314Z,135
2017-10-19T11:39:37.380Z,135
2017-10-19T11:40:47.794Z,130
2017-10-19T11:41:58.642Z,130
2017-10-19T11:43:09.069Z,120
2017-10-19T11:44:19.503Z,115
2017-10-19T11:45:29.911Z,115
2017-10-19T11:46:39.323Z,115
2017-10-19T11:47:49.388Z,115
2017-10-19T11:48:59.125Z,115
2017-10-19T11:50:09.527Z,115
2017-10-19T11:51:19.606Z,115
2017-10-19T11:52:29.695Z,110
2017-10-19T11:53:40.166Z,105
2017-10-19T11:54:50.571Z,105
2017-10-19T11:56:01.012Z,105
2017-10-19T11:57:11.419Z,110
2017-10-19T11:58:21.507Z,130
2017-10-19T11:59:31.940Z,115
2017-10-19T12:00:42.366Z,165
2017-10-19T12:01:52.784Z,115
2017-10-19T12:03:03.213Z,130
2017-10-19T12:04:13.689Z,120
2017-10-19T12:05:24.142Z,170
2017-10-19T12:06:34.210Z,200
2017-10-19T12:07:44.646Z,205
2017-10-19T12:08:55.058Z,205
2017-10-19T12:10:05.466Z,205
2017-10-19T12:11:15.951Z,210
2017-10-19T12:12:26.376Z,210
2017-10-19T12:13:36.446Z,205
2017-10-19T12:14:46.872Z,205
2017-10-19T12:15:57.279Z,205
2017-10-19T12:17:07.755Z,205
2017-10-19T12:18:18.184Z,195
2017-10-19T12:19:27.955Z,205
2017-10-19T12:20:39.473Z,200
2017-10-19T12:21:49.910Z,200
2017-10-19T12:23:01.272Z,200
2017-10-19T12:24:11.698Z,200
2017-10-19T12:25:22.108Z,195
2017-10-19T12:26:32.527Z,195
2017-10-19T12:27:44.133Z,200
2017-10-19T12:28:55.606Z,200
2017-10-19T12:30:07.337Z,200
2017-10-19T12:31:18.833Z,200
2017-10-19T12:32:31.393Z,195
2017-10-19T12:33:43.987Z,195
2017-10-19T12:34:54.739Z,195
2017-10-19T12:36:07.490Z,190
2017-10-19T12:37:18.478Z,190
2017-10-19T12:38:28.684Z,190
2017-10-19T12:39:39.169Z,190
2017-10-19T12:40:58.739Z,185
2017-10-19T12:42:09.135Z,185
2017-10-19T12:43:19.544Z,190
2017-10-19T12:44:29.990Z,185
2017-10-19T12:45:40.547Z,190
2017-10-19T12:46:50.993Z,185
2017-10-19T12:48:01.461Z,190
2017-10-19T12:49:11.551Z,180
2017-10-19T12:50:22.117Z,180
2017-10-19T12:51:32.386Z,180
2017-10-19T12:52:42.851Z,180
2017-10-19T12:53:53.297Z,180
2017-10-19T12:55:04.586Z,180
2017-10-19T12:56:15.196Z,180
2017-10-19T12:57:25.619Z,180
2017-10-19T12:58:36.026Z,175
2017-10-19T12:59:46.457Z,175
2017-10-19T13:00:57.489Z,175
2017-10-19T13:02:07.615Z,175
2017-10-19T13:03:18.053Z,175
2017-10-19T13:04:28.125Z,175
2017-10-19T13:05:38.532Z,170
2017-10-19T13:06:48.961Z,170
2017-10-19T13:07:59.415Z,170
2017-10-19T13:09:09.836Z,170
2017-10-19T13:10:19.586Z,165
2017-10-19T13:11:30.024Z,165
2017-10-19T13:12:40.110Z,165
2017-10-19T13:13:50.198Z,165
2017-10-19T13:15:00.629Z,160
2017-10-19T13:16:10.730Z,160
2017-10-19T13:17:21.183Z,160
2017-10-19T13:18:31.626Z,160
2017-10-19T13:19:41.778Z,160
2017-10-19T13:20:52.195Z,160
2017-10-19T13:22:02.637Z,155
2017-10-19T13:23:12.748Z,155
2017-10-19T13:24:23.144Z,155
2017-10-19T13:25:33.612Z,155
2017-10-19T13:26:43.694Z,155
2017-10-19T13:27:53.797Z,155
2017-10-19T13:29:04.201Z,155
2017-10-19T13:30:14.293Z,150
2017-10-19T13:31:24.779Z,150
2017-10-19T13:32:34.871Z,150
2017-10-19T13:33:45.302Z,150
2017-10-19T13:34:56.204Z,145
2017-10-19T13:36:06.636Z,145
2017-10-19T13:37:17.051Z,145
2017-10-19T13:38:27.147Z,145
2017-10-19T13:39:37.566Z,145
2017-10-19T13:40:47.673Z,145
2017-10-19T13:41:58.139Z,145
2017-10-19T13:43:08.584Z,145
2017-10-19T13:44:18.988Z,145
2017-10-19T13:45:29.392Z,145
2017-10-19T13:46:39.481Z,140
2017-10-19T13:47:49.906Z,140
2017-10-19T13:49:00.459Z,140
2017-10-19T13:50:10.872Z,140
2017-10-19T13:51:20.945Z,140
2017-10-19T13:52:31.341Z,135
2017-10-19T13:53:41.768Z,135
2017-10-19T13:54:52.232Z,135
2017-10-19T13:56:03.433Z,135
2017-10-19T13:57:13.864Z,130
2017-10-19T13:58:24.294Z,130
2017-10-19T13:59:35.310Z,130
2017-10-19T14:00:45.741Z,130
2017-10-19T14:01:56.150Z,125
2017-10-19T14:03:06.246Z,125
2017-10-19T14:04:16.649Z,125
2017-10-19T14:05:27.060Z,125
2017-10-19T14:06:36.804Z,120
2017-10-19T14:07:47.215Z,120
2017-10-19T14:08:57.308Z,120
2017-10-19T14:10:07.726Z,115
2017-10-19T14:11:18.138Z,115
2017-10-19T14:12:28.545Z,115
2017-10-19T14:13:38.290Z,115
2017-10-19T14:14:48.057Z,110
2017-10-19T14:15:58.469Z,110
2017-10-19T14:17:08.857Z,110
2017-10-19T14:18:18.654Z,110
2017-10-19T14:19:29.064Z,110
2017-10-19T14:20:39.472Z,105
2017-10-19T14:21:49.557Z,105
2017-10-19T14:22:59.613Z,105
2017-10-19T14:24:10.023Z,100
2017-10-19T14:25:20.121Z,100
2017-10-19T14:26:30.547Z,100
2017-10-19T14:27:40.633Z,100
2017-10-19T14:28:50.394Z,95
2017-10-19T14:30:00.807Z,95
2017-10-19T14:31:11.270Z,95
2017-10-19T14:32:21.694Z,90
2017-10-19T14:33:31.774Z,90
2017-10-19T14:34:42.181Z,90
2017-10-19T14:35:53.054Z,90
2017-10-19T14:37:03.122Z,90
2017-10-19T14:38:13.199Z,90
2017-10-19T14:39:23.614Z,90
2017-10-19T14:40:34.059Z,90
2017-10-19T14:41:44.209Z,85
2017-10-19T14:42:54.621Z,85
2017-10-19T14:44:04.722Z,85
2017-10-19T14:45:14.476Z,85
2017-10-19T14:46:24.558Z,80
2017-10-19T14:47:35.024Z,80
2017-10-19T14:48:45.497Z,80
2017-10-19T14:49:55.927Z,75
2017-10-19T14:51:06.317Z,75
2017-10-19T14:52:16.072Z,75
2017-10-19T14:53:26.195Z,70
2017-10-19T14:54:36.293Z,70
2017-10-19T14:55:46.700Z,70
2017-10-19T14:56:56.788Z,65
2017-10-19T14:58:07.209Z,65
2017-10-19T14:59:17.346Z,60
2017-10-19T15:00:27.430Z,60
2017-10-19T15:01:37.853Z,60
2017-10-19T15:02:47.954Z,60
2017-10-19T15:03:58.380Z,55
2017-10-19T15:05:08.873Z,55
2017-10-19T15:06:18.968Z,50
2017-10-19T15:07:29.394Z,50
2017-10-19T15:08:39.475Z,50
2017-10-19T15:09:49.884Z,45
2017-10-19T15:11:00.340Z,45
2017-10-19T15:12:10.783Z,45
2017-10-19T15:13:21.239Z,45
2017-10-19T15:14:31.718Z,45
2017-10-19T15:15:42.163Z,45
2017-10-19T15:16:52.697Z,45
2017-10-19T15:18:03.126Z,40
2017-10-19T15:19:13.536Z,40
2017-10-19T15:20:23.959Z,40
2017-10-19T15:21:35.151Z,35
2017-10-19T15:22:45.248Z,35
2017-10-19T15:23:55.663Z,35
2017-10-19T15:25:06.072Z,30
2017-10-19T15:26:16.491Z,30
2017-10-19T15:27:26.900Z,30
2017-10-19T15:28:37.369Z,25
2017-10-19T15:29:47.825Z,25
2017-10-19T15:30:58.489Z,25
2017-10-19T15:32:08.291Z,25
2017-10-19T15:33:18.712Z,20
2017-10-19T15:34:29.177Z,20
2017-10-19T15:35:39.574Z,20
2017-10-19T15:36:50.013Z,20
2017-10-19T15:38:00.114Z,15
2017-10-19T15:39:10.170Z,15
2017-10-19T15:40:20.628Z,15
2017-10-19T15:41:30.717Z,15
2017-10-19T15:42:40.794Z,15
2017-10-19T15:43:50.888Z,10
2017-10-19T15:45:01.338Z,10
2017-10-19T15:46:11.815Z,10
2017-10-19T15:47:22.273Z,10
2017-10-19T15:48:32.695Z,10
2017-10-19T15:49:43.125Z,5
2017-10-19T15:50:53.570Z,5
2017-10-19T15:52:04.024Z,5
2017-10-19T15:53:14.468Z,5
2017-10-19T15:54:24.909Z,5
2017-10-19T15:55:35.313Z,5
2017-10-19T15:56:45.757Z,5
2017-10-19T15:57:56.230Z,5
2017-10-19T15:59:06.686Z,0
2017-10-19T16:00:17.102Z,0
2017-10-19T16:01:27.555Z,0
2017-10-19T16:02:37.638Z,0
2017-10-19T16:03:47.768Z,0
2017-10-19T16:04:58.175Z,0
2017-10-19T16:06:08.584Z,0
2017-10-19T16:07:18.698Z,0
2017-10-19T16:08:29.135Z,0
2017-10-19T16:09:39.249Z,0
2017-10-19T16:10:49.671Z,0
2017-10-19T16:11:59.461Z,0
2017-10-19T16:13:09.554Z,0
2017-10-19T16:14:19.977Z,0
2017-10-19T16:15:30.379Z,0
2017-10-19T16:16:40.785Z,0
2017-10-19T16:17:50.879Z,0
2017-10-19T16:19:00.657Z,0
2017-10-19T16:20:11.092Z,0
2017-10-19T16:21:21.226Z,0
2017-10-19T16:22:31.643Z,0
2017-10-19T16:23:42.078Z,0
2017-10-19T16:24:52.535Z,0
2017-10-19T16:26:02.952Z,0
2017-10-19T16:27:13.106Z,0
2017-10-19T16:28:23.523Z,0
2017-10-19T16:29:33.945Z,0
2017-10-19T16:30:44.031Z,0
2017-10-19T16:31:54.482Z,0
2017-10-19T16:33:04.614Z,0
2017-10-19T16:34:15.036Z,0
2017-10-19T16:35:25.469Z,0
2017-10-19T16:36:35.952Z,0
2017-10-19T16:37:46.416Z,0
2017-10-19T16:38:56.538Z,0
2017-10-19T16:40:06.978Z,0
2017-10-19T16:41:17.083Z,0
2017-10-19T16:42:27.174Z,0
2017-10-19T16:43:37.630Z,0
2017-10-19T16:44:48.121Z,0
2017-10-19T16:45:58.564Z,0
2017-10-19T16:47:09.020Z,0
2017-10-19T16:48:19.458Z,0
2017-10-19T16:49:29.561Z,0
2017-10-19T16:50:40.003Z,0
2017-10-19T16:51:49.753Z,0
2017-10-19T16:53:00.165Z,0
2017-10-19T16:54:10.247Z,0
2017-10-19T16:55:20.019Z,0
2017-10-19T16:56:30.489Z,0
2017-10-19T16:57:40.927Z,0
2017-10-19T16:58:51.020Z,0
2017-10-19T17:00:01.438Z,0
2017-10-19T17:01:11.883Z,0
2017-10-19T17:02:22.329Z,0
2017-10-19T17:03:32.741Z,0
2017-10-19T17:04:43.174Z,0
2017-10-19T17:05:53.270Z,0
2017-10-19T17:07:03.716Z,0
2017-10-19T17:08:14.896Z,0
2017-10-19T17:09:25.324Z,0
2017-10-19T17:10:35.736Z,0
2017-10-19T17:11:46.175Z,0
2017-10-19T17:12:56.610Z,0
2017-10-19T17:14:07.078Z,0
2017-10-19T17:15:17.506Z,0
2017-10-19T17:16:27.924Z,0
2017-10-19T17:17:38.350Z,0
2017-10-19T17:18:48.454Z,0
2017-10-19T17:19:58.544Z,0
2017-10-19T17:21:08.989Z,0